Time;durP1;ratioP1;P1;durP2;ratioP2;P2;SDS_P1;SDS_P2;PMS_P1;PMS_P2;Temp;Humidity;BMP_temperature;BMP_pressure;BME280_temperature;BME280_humidity;BME280_pressure;Samples;Min_cycle;Max_cycle;Signal;HPM_P1;HPM_P2
2023/08/11 00:00:08;;;;;;;4.75;2.67;;;;;;;;;;612787;23;1368;-79
2023/08/11 00:00:25;;;;;;;6.20;2.90;;;;;;;;;;610423;23;1280;-79
2023/08/11 00:00:41;;;;;;;6.63;2.85;;;;;;;;;;612388;23;1412;-79
2023/08/11 00:01:00;;;;;;;5.63;2.70;;;;;;;;;;613263;23;1268;-78
2023/08/11 00:01:16;;;;;;;3.25;2.58;;;;;;;;;;613053;23;1305;-78
2023/08/11 00:01:31;;;;;;;3.88;2.55;;;;;;;;;;615861;23;1396;-78
2023/08/11 00:01:47;;;;;;;5.67;2.60;;;;;;;;;;618265;23;1292;-79
2023/08/11 00:02:05;;;;;;;5.78;2.55;;;;;;;;;;615819;23;1297;-78
2023/08/11 00:02:22;;;;;;;5.50;2.67;;;;;;;;;;612845;23;1309;-79
2023/08/11 00:02:38;;;;;;;6.38;2.90;;;;;;;;;;610105;24;1442;-78
2023/08/11 00:02:53;;;;;;;6.75;2.85;;;;;;;;;;609773;23;1230;-79
2023/08/11 00:03:09;;;;;;;7.00;2.90;;;;;;;;;;609566;24;801;-79
2023/08/11 00:03:25;;;;;;;6.73;2.83;;;;;;;;;;610212;24;1374;-78
2023/08/11 00:03:41;;;;;;;5.47;2.70;;;;;;;;;;609665;24;1249;-78
2023/08/11 00:03:57;;;;;;;5.88;2.80;;;;;;;;;;611028;23;840;-78
2023/08/11 00:04:14;;;;;;;4.95;2.65;;;;;;;;;;609961;24;1272;-78
2023/08/11 00:04:29;;;;;;;4.70;2.58;;;;;;;;;;608377;24;1306;-78
2023/08/11 00:04:45;;;;;;;5.47;2.60;;;;;;;;;;607717;24;1171;-79
2023/08/11 00:05:00;;;;;;;5.13;2.80;;;;;;;;;;607545;24;1376;-79
2023/08/11 00:05:20;;;;;;;5.40;2.73;;;;;;;;;;609426;24;1358;-78
2023/08/11 00:05:37;;;;;;;6.78;2.78;;;;;;;;;;615390;23;1356;-79
2023/08/11 00:05:55;;;;;;;6.82;2.67;;;;;;;;;;612902;23;1321;-78
2023/08/11 00:06:10;;;;;;;6.63;2.60;;;;;;;;;;613095;23;1234;-78
2023/08/11 00:06:26;;;;;;;7.28;2.65;;;;;;;;;;610039;23;1377;-78
2023/08/11 00:06:44;;;;;;;5.45;2.53;;;;;;;;;;610814;24;1377;-78
2023/08/11 00:07:02;;;;;;;5.68;2.50;;;;;;;;;;613512;23;1278;-78
2023/08/11 00:07:18;;;;;;;4.88;2.60;;;;;;;;;;609429;24;1250;-78
2023/08/11 00:07:34;;;;;;;5.03;2.75;;;;;;;;;;612247;23;1241;-78
2023/08/11 00:07:50;;;;;;;6.68;2.80;;;;;;;;;;614918;23;1289;-78
2023/08/11 00:08:08;;;;;;;4.82;2.70;;;;;;;;;;615265;23;1389;-78
2023/08/11 00:08:23;;;;;;;3.92;2.40;;;;;;;;;;612194;23;1432;-78
2023/08/11 00:08:39;;;;;;;4.55;2.45;;;;;;;;;;612288;23;1305;-77
2023/08/11 00:08:55;;;;;;;5.22;2.60;;;;;;;;;;612490;23;1551;-78
2023/08/11 00:09:11;;;;;;;5.55;2.70;;;;;;;;;;612076;23;872;-78
2023/08/11 00:09:26;;;;;;;4.80;2.60;;;;;;;;;;610298;24;1376;-77
2023/08/11 00:09:42;;;;;;;5.20;2.63;;;;;;;;;;613034;23;1471;-78
2023/08/11 00:09:57;;;;;;;6.22;2.70;;;;;;;;;;613606;23;777;-78
2023/08/11 00:10:13;;;;;;;7.30;2.70;;;;;;;;;;615669;23;1282;-78
2023/08/11 00:10:29;;;;;;;6.68;2.70;;;;;;;;;;613908;23;1274;-78
2023/08/11 00:10:45;;;;;;;5.65;2.60;;;;;;;;;;609764;24;1313;-78
2023/08/11 00:11:01;;;;;;;5.70;2.60;;;;;;;;;;609152;24;1278;-78
2023/08/11 00:11:16;;;;;;;5.47;2.67;;;;;;;;;;609469;24;1260;-78
2023/08/11 00:11:33;;;;;;;5.53;2.78;;;;;;;;;;612176;23;1406;-78
2023/08/11 00:11:50;;;;;;;5.25;2.63;;;;;;;;;;615004;23;1315;-78
2023/08/11 00:12:06;;;;;;;4.50;2.50;;;;;;;;;;615391;23;1357;-78
2023/08/11 00:12:22;;;;;;;5.70;2.70;;;;;;;;;;615119;23;1372;-78
2023/08/11 00:12:37;;;;;;;6.30;2.80;;;;;;;;;;615386;23;1287;-78
2023/08/11 00:12:53;;;;;;;5.53;2.47;;;;;;;;;;612464;23;1204;-78
2023/08/11 00:13:12;;;;;;;4.57;2.40;;;;;;;;;;612415;23;1354;-79
2023/08/11 00:13:28;;;;;;;4.07;2.40;;;;;;;;;;611870;23;1282;-78
2023/08/11 00:13:43;;;;;;;3.80;2.50;;;;;;;;;;609027;24;1210;-78
2023/08/11 00:13:59;;;;;;;3.90;2.47;;;;;;;;;;611788;23;1357;-78
2023/08/11 00:14:15;;;;;;;4.13;2.58;;;;;;;;;;614740;23;1152;-78
2023/08/11 00:14:31;;;;;;;4.80;2.75;;;;;;;;;;612780;23;1389;-78
2023/08/11 00:14:56;;;;;;;4.55;2.50;;;;;;;;;;615629;23;1262;-77
2023/08/11 00:15:14;;;;;;;4.20;2.50;;;;;;;;;;617846;23;1307;-78
2023/08/11 00:15:31;;;;;;;5.60;2.60;;;;;;;;;;618042;23;1221;-79
2023/08/11 00:15:46;;;;;;;6.32;2.65;;;;;;;;;;615001;23;1343;-78
2023/08/11 00:16:03;;;;;;;4.25;2.55;;;;;;;;;;615137;23;757;-78
2023/08/11 00:16:19;;;;;;;5.65;2.60;;;;;;;;;;614804;23;849;-78
2023/08/11 00:16:34;;;;;;;6.33;2.70;;;;;;;;;;611830;23;1276;-78
2023/08/11 00:16:50;;;;;;;4.88;2.42;;;;;;;;;;609059;24;1320;-78
2023/08/11 00:17:05;;;;;;;4.17;2.50;;;;;;;;;;612434;23;1975;-78
2023/08/11 00:17:21;;;;;;;4.05;2.47;;;;;;;;;;612285;23;1337;-78
2023/08/11 00:17:37;;;;;;;5.07;2.40;;;;;;;;;;615601;23;1229;-78
2023/08/11 00:17:53;;;;;;;5.47;2.60;;;;;;;;;;616304;23;840;-79
2023/08/11 00:18:09;;;;;;;5.03;2.70;;;;;;;;;;616012;23;1274;-78
2023/08/11 00:18:24;;;;;;;5.80;2.78;;;;;;;;;;615828;23;1510;-78
2023/08/11 00:19:00;;;;;;;5.63;2.70;;;;;;;;;;615207;23;1290;-78
2023/08/11 00:19:16;;;;;;;5.70;2.70;;;;;;;;;;616658;23;1282;-79
2023/08/11 00:19:32;;;;;;;4.82;2.70;;;;;;;;;;615825;23;1424;-78
2023/08/11 00:19:47;;;;;;;4.60;2.60;;;;;;;;;;615630;23;1330;-78
2023/08/11 00:20:05;;;;;;;5.30;2.63;;;;;;;;;;618845;23;1228;-79
2023/08/11 00:20:21;;;;;;;7.50;2.78;;;;;;;;;;616001;23;1416;-79
2023/08/11 00:20:38;;;;;;;6.37;2.63;;;;;;;;;;618598;23;1242;-78
2023/08/11 00:20:53;;;;;;;4.38;2.72;;;;;;;;;;620550;23;1272;-78
2023/08/11 00:21:09;;;;;;;5.18;2.72;;;;;;;;;;618115;23;1248;-78
2023/08/11 00:21:25;;;;;;;5.30;2.80;;;;;;;;;;615074;23;1340;-78
2023/08/11 00:21:41;;;;;;;5.55;2.70;;;;;;;;;;618193;23;1339;-78
2023/08/11 00:21:56;;;;;;;7.22;2.67;;;;;;;;;;617951;23;1564;-78
2023/08/11 00:22:12;;;;;;;8.13;2.60;;;;;;;;;;615379;23;1312;-78
2023/08/11 00:22:28;;;;;;;7.07;2.60;;;;;;;;;;616271;23;816;-79
2023/08/11 00:22:43;;;;;;;4.37;2.60;;;;;;;;;;618634;23;1257;-78
2023/08/11 00:22:59;;;;;;;3.28;2.50;;;;;;;;;;621030;23;1344;-78
2023/08/11 00:23:15;;;;;;;4.33;2.57;;;;;;;;;;622392;23;1299;-78
2023/08/11 00:23:31;;;;;;;4.55;2.60;;;;;;;;;;619521;23;849;-78
2023/08/11 00:23:47;;;;;;;4.17;2.60;;;;;;;;;;615143;23;1423;-78
2023/08/11 00:24:03;;;;;;;5.60;2.60;;;;;;;;;;613361;23;1163;-78
2023/08/11 00:24:21;;;;;;;5.78;2.70;;;;;;;;;;618163;23;1513;-77
2023/08/11 00:24:37;;;;;;;7.78;2.70;;;;;;;;;;618817;23;1264;-78
2023/08/11 00:24:52;;;;;;;7.77;2.77;;;;;;;;;;621051;23;1307;-77
2023/08/11 00:25:08;;;;;;;6.57;2.80;;;;;;;;;;618289;23;1244;-78
2023/08/11 00:25:24;;;;;;;7.20;2.80;;;;;;;;;;620735;23;1281;-78
2023/08/11 00:25:39;;;;;;;7.63;2.90;;;;;;;;;;618379;23;1352;-78
2023/08/11 00:25:55;;;;;;;5.97;2.88;;;;;;;;;;617833;23;1349;-78
2023/08/11 00:26:31;;;;;;;5.40;2.90;;;;;;;;;;617958;23;1118;-78
2023/08/11 00:26:47;;;;;;;5.53;2.70;;;;;;;;;;617297;23;1416;-78
2023/08/11 00:27:03;;;;;;;5.80;2.80;;;;;;;;;;617982;23;1357;-78
2023/08/11 00:27:19;;;;;;;6.30;2.83;;;;;;;;;;618030;23;1314;-78
2023/08/11 00:27:35;;;;;;;6.97;2.63;;;;;;;;;;625019;23;1332;-78
2023/08/11 00:27:51;;;;;;;7.40;2.70;;;;;;;;;;620702;23;1213;-78
2023/08/11 00:28:06;;;;;;;5.95;2.70;;;;;;;;;;618585;23;1338;-77
2023/08/11 00:28:22;;;;;;;3.83;2.58;;;;;;;;;;618820;23;1307;-78
2023/08/11 00:28:38;;;;;;;4.87;2.70;;;;;;;;;;614843;23;1164;-78
2023/08/11 00:28:53;;;;;;;6.43;2.88;;;;;;;;;;618173;23;1464;-78
2023/08/11 00:29:11;;;;;;;7.30;2.90;;;;;;;;;;617905;23;1450;-78
2023/08/11 00:29:26;;;;;;;6.53;2.83;;;;;;;;;;617636;23;955;-78
2023/08/11 00:29:42;;;;;;;5.88;2.90;;;;;;;;;;618866;23;1312;-78
2023/08/11 00:29:58;;;;;;;6.07;2.90;;;;;;;;;;618960;23;1129;-78
2023/08/11 00:30:13;;;;;;;6.77;2.90;;;;;;;;;;616813;23;1249;-78
2023/08/11 00:30:29;;;;;;;6.25;2.90;;;;;;;;;;616464;23;1371;-78
2023/08/11 00:30:45;;;;;;;5.15;2.80;;;;;;;;;;614868;23;1264;-78
2023/08/11 00:31:01;;;;;;;6.90;2.70;;;;;;;;;;612787;23;1195;-78
2023/08/11 00:31:16;;;;;;;7.10;2.85;;;;;;;;;;609185;24;1089;-78
2023/08/11 00:31:32;;;;;;;5.25;2.97;;;;;;;;;;611731;23;1056;-78
2023/08/11 00:31:48;;;;;;;5.20;2.80;;;;;;;;;;611907;23;1314;-78
2023/08/11 00:32:03;;;;;;;5.43;2.58;;;;;;;;;;615547;23;1318;-78
2023/08/11 00:32:19;;;;;;;7.07;2.63;;;;;;;;;;617745;23;1228;-77
2023/08/11 00:32:35;;;;;;;8.33;2.87;;;;;;;;;;621408;23;1287;-77
2023/08/11 00:32:50;;;;;;;7.00;2.90;;;;;;;;;;621665;23;1295;-78
2023/08/11 00:33:06;;;;;;;6.43;2.83;;;;;;;;;;618207;23;1237;-77
2023/08/11 00:33:22;;;;;;;5.47;2.60;;;;;;;;;;615348;23;1236;-78
2023/08/11 00:33:37;;;;;;;4.15;2.53;;;;;;;;;;617693;23;1274;-77
2023/08/11 00:33:53;;;;;;;4.40;2.40;;;;;;;;;;618497;23;1510;-77
2023/08/11 00:34:08;;;;;;;4.55;2.30;;;;;;;;;;618844;23;1189;-78
2023/08/11 00:34:24;;;;;;;4.60;2.40;;;;;;;;;;618151;23;1268;-77
2023/08/11 00:34:40;;;;;;;3.77;2.50;;;;;;;;;;617982;23;1243;-78
2023/08/11 00:34:55;;;;;;;4.15;2.60;;;;;;;;;;611957;23;1437;-77
2023/08/11 00:35:11;;;;;;;6.10;2.70;;;;;;;;;;617765;23;1111;-79
2023/08/11 00:35:27;;;;;;;6.30;2.72;;;;;;;;;;618450;23;796;-78
2023/08/11 00:35:43;;;;;;;5.60;2.80;;;;;;;;;;618003;23;1431;-79
2023/08/11 00:35:58;;;;;;;5.13;2.80;;;;;;;;;;620742;23;1225;-78
2023/08/11 00:36:15;;;;;;;5.43;2.90;;;;;;;;;;620715;23;1251;-79
2023/08/11 00:36:30;;;;;;;5.68;2.80;;;;;;;;;;617661;23;1446;-79
2023/08/11 00:36:46;;;;;;;5.50;2.67;;;;;;;;;;614808;23;1237;-78
2023/08/11 00:37:02;;;;;;;6.07;2.70;;;;;;;;;;615114;23;1230;-79
2023/08/11 00:37:18;;;;;;;6.68;2.85;;;;;;;;;;611996;23;1930;-78
2023/08/11 00:37:34;;;;;;;5.57;2.70;;;;;;;;;;612071;23;1455;-79
2023/08/11 00:37:52;;;;;;;4.40;2.45;;;;;;;;;;613068;23;1292;-78
2023/08/11 00:38:08;;;;;;;4.30;2.53;;;;;;;;;;612699;23;1286;-78
2023/08/11 00:38:36;;;;;;;6.23;2.70;;;;;;;;;;612565;23;1202;-78
2023/08/11 00:38:52;;;;;;;5.80;2.70;;;;;;;;;;614537;23;1344;-78
2023/08/11 00:39:07;;;;;;;5.55;2.78;;;;;;;;;;611552;23;1255;-77
2023/08/11 00:39:23;;;;;;;4.93;2.73;;;;;;;;;;611679;23;1267;-78
2023/08/11 00:39:39;;;;;;;5.35;2.88;;;;;;;;;;611671;23;1213;-78
2023/08/11 00:39:55;;;;;;;6.18;2.80;;;;;;;;;;615245;23;1364;-78
2023/08/11 00:40:11;;;;;;;4.78;2.70;;;;;;;;;;614555;23;881;-78
2023/08/11 00:40:27;;;;;;;5.35;2.72;;;;;;;;;;618182;23;1103;-78
2023/08/11 00:40:43;;;;;;;5.57;2.80;;;;;;;;;;618848;23;1205;-78
2023/08/11 00:40:58;;;;;;;5.78;2.80;;;;;;;;;;621321;23;1375;-77
2023/08/11 00:41:16;;;;;;;5.53;2.60;;;;;;;;;;616011;23;1293;-78
2023/08/11 00:41:32;;;;;;;5.65;2.75;;;;;;;;;;612818;23;1427;-78
2023/08/11 00:41:48;;;;;;;4.90;2.70;;;;;;;;;;615944;23;1350;-78
2023/08/11 00:42:03;;;;;;;6.55;2.60;;;;;;;;;;614471;23;1155;-78
2023/08/11 00:42:20;;;;;;;8.65;2.90;;;;;;;;;;614527;23;1367;-78
2023/08/11 00:42:35;;;;;;;5.95;3.00;;;;;;;;;;614941;23;1114;-78
2023/08/11 00:42:51;;;;;;;4.67;2.80;;;;;;;;;;618309;23;1141;-78
2023/08/11 00:43:07;;;;;;;4.75;2.70;;;;;;;;;;619226;23;1440;-78
2023/08/11 00:43:22;;;;;;;6.18;2.67;;;;;;;;;;618330;23;1346;-78
2023/08/11 00:43:38;;;;;;;6.03;2.87;;;;;;;;;;617938;23;1374;-78
2023/08/11 00:43:54;;;;;;;6.20;2.95;;;;;;;;;;614931;23;1324;-79
2023/08/11 00:44:09;;;;;;;6.25;2.90;;;;;;;;;;615071;23;967;-78
2023/08/11 00:44:25;;;;;;;4.57;2.80;;;;;;;;;;614371;23;886;-79
2023/08/11 00:44:41;;;;;;;4.30;2.70;;;;;;;;;;614884;23;1269;-78
2023/08/11 00:44:59;;;;;;;4.38;2.80;;;;;;;;;;615198;23;840;-78
2023/08/11 00:45:14;;;;;;;5.30;2.92;;;;;;;;;;613331;23;1319;-78
2023/08/11 00:45:30;;;;;;;6.10;3.10;;;;;;;;;;619677;23;1210;-78
2023/08/11 00:45:49;;;;;;;6.18;2.92;;;;;;;;;;619869;23;1213;-78
2023/08/11 00:46:13;;;;;;;6.45;2.80;;;;;;;;;;618654;23;1260;-78
2023/08/11 00:46:28;;;;;;;4.10;2.55;;;;;;;;;;615673;23;1495;-78
2023/08/11 00:46:45;;;;;;;3.50;2.50;;;;;;;;;;613129;23;1304;-77
2023/08/11 00:47:01;;;;;;;5.57;2.58;;;;;;;;;;612480;23;1576;-78
2023/08/11 00:47:20;;;;;;;5.90;2.60;;;;;;;;;;615430;23;1291;-78
2023/08/11 00:47:41;;;;;;;5.20;2.90;;;;;;;;;;618139;23;1373;-78
2023/08/11 00:47:57;;;;;;;5.63;2.67;;;;;;;;;;619564;23;844;-78
2023/08/11 00:48:13;;;;;;;5.72;2.60;;;;;;;;;;619366;23;1444;-79
2023/08/11 00:48:32;;;;;;;4.85;2.60;;;;;;;;;;622218;23;1265;-78
2023/08/11 00:48:51;;;;;;;4.53;2.60;;;;;;;;;;619082;23;1186;-78
2023/08/11 00:49:06;;;;;;;6.00;2.70;;;;;;;;;;612745;23;1257;-78
2023/08/11 00:49:23;;;;;;;5.13;2.70;;;;;;;;;;610068;23;1370;-78
2023/08/11 00:49:38;;;;;;;4.40;2.72;;;;;;;;;;612863;23;1012;-78
2023/08/11 00:49:54;;;;;;;6.97;2.90;;;;;;;;;;612412;23;1269;-78
2023/08/11 00:50:12;;;;;;;7.50;2.80;;;;;;;;;;616518;23;1451;-78
2023/08/11 00:50:28;;;;;;;6.72;2.80;;;;;;;;;;612865;23;1412;-78
2023/08/11 00:50:43;;;;;;;5.60;2.67;;;;;;;;;;615334;23;1368;-78
2023/08/11 00:50:59;;;;;;;4.65;2.70;;;;;;;;;;615714;23;1209;-78
2023/08/11 00:51:15;;;;;;;4.57;2.80;;;;;;;;;;615934;23;1333;-79
2023/08/11 00:51:31;;;;;;;4.63;3.00;;;;;;;;;;615863;23;816;-78
2023/08/11 00:51:48;;;;;;;5.22;2.78;;;;;;;;;;613541;23;1330;-78
2023/08/11 00:52:04;;;;;;;6.20;2.80;;;;;;;;;;616066;23;1237;-78
2023/08/11 00:52:20;;;;;;;6.32;2.78;;;;;;;;;;615102;23;1241;-77
2023/08/11 00:52:37;;;;;;;4.93;2.80;;;;;;;;;;618026;23;1392;-78
2023/08/11 00:52:54;;;;;;;4.78;2.70;;;;;;;;;;614965;23;1220;-78
2023/08/11 00:53:10;;;;;;;4.32;2.70;;;;;;;;;;615939;23;1281;-78
2023/08/11 00:53:26;;;;;;;4.68;2.78;;;;;;;;;;616187;23;1415;-78
2023/08/11 00:53:42;;;;;;;5.05;2.85;;;;;;;;;;615620;23;1396;-78
2023/08/11 00:53:58;;;;;;;5.22;2.72;;;;;;;;;;618889;23;1457;-78
2023/08/11 00:54:16;;;;;;;5.25;2.70;;;;;;;;;;621401;23;1330;-78
2023/08/11 00:54:31;;;;;;;6.27;2.80;;;;;;;;;;621794;23;915;-79
2023/08/11 00:54:47;;;;;;;5.80;2.73;;;;;;;;;;617591;23;1070;-78
2023/08/11 00:55:03;;;;;;;4.80;2.72;;;;;;;;;;617992;23;1436;-79
2023/08/11 00:55:19;;;;;;;4.78;2.88;;;;;;;;;;617913;23;1354;-78
2023/08/11 00:55:35;;;;;;;5.32;2.80;;;;;;;;;;617675;23;1405;-78
2023/08/11 00:55:51;;;;;;;5.78;2.90;;;;;;;;;;618340;23;1272;-79
2023/08/11 00:56:07;;;;;;;6.28;2.75;;;;;;;;;;622058;23;1482;-79
2023/08/11 00:56:23;;;;;;;6.35;2.60;;;;;;;;;;621562;23;1287;-79
2023/08/11 00:56:44;;;;;;;4.80;2.88;;;;;;;;;;618596;23;1513;-78
2023/08/11 00:57:00;;;;;;;4.53;2.80;;;;;;;;;;616038;23;1379;-79
2023/08/11 00:57:15;;;;;;;5.17;2.80;;;;;;;;;;618235;23;1933;-78
2023/08/11 00:57:31;;;;;;;5.75;2.90;;;;;;;;;;615819;23;1085;-78
2023/08/11 00:57:47;;;;;;;4.80;2.72;;;;;;;;;;612204;23;1480;-77
2023/08/11 00:58:02;;;;;;;4.60;2.70;;;;;;;;;;615034;23;1304;-78
2023/08/11 00:58:18;;;;;;;5.55;2.70;;;;;;;;;;615617;23;1402;-79
2023/08/11 00:58:34;;;;;;;4.72;2.70;;;;;;;;;;618827;23;1420;-78
2023/08/11 00:58:51;;;;;;;5.20;2.72;;;;;;;;;;615400;23;1260;-78
2023/08/11 00:59:06;;;;;;;5.75;2.70;;;;;;;;;;618694;23;1246;-78
2023/08/11 00:59:23;;;;;;;6.07;2.70;;;;;;;;;;618111;23;1262;-78
2023/08/11 00:59:39;;;;;;;5.50;2.65;;;;;;;;;;615994;23;1277;-79
2023/08/11 00:59:56;;;;;;;5.47;2.72;;;;;;;;;;612263;23;1371;-78
2023/08/11 01:00:13;;;;;;;7.05;3.00;;;;;;;;;;615512;23;1230;-78
2023/08/11 01:00:29;;;;;;;5.95;2.90;;;;;;;;;;615217;23;1337;-79
2023/08/11 01:00:47;;;;;;;4.63;2.80;;;;;;;;;;614938;23;1215;-78
2023/08/11 01:01:04;;;;;;;4.65;2.80;;;;;;;;;;618249;23;1396;-79
2023/08/11 01:01:19;;;;;;;4.68;2.80;;;;;;;;;;616194;23;1599;-78
2023/08/11 01:01:35;;;;;;;5.30;2.80;;;;;;;;;;615206;23;797;-78
2023/08/11 01:01:51;;;;;;;5.68;2.83;;;;;;;;;;616129;23;1273;-78
2023/08/11 01:02:07;;;;;;;5.70;2.87;;;;;;;;;;616847;23;1208;-77
2023/08/11 01:02:23;;;;;;;6.57;2.80;;;;;;;;;;618590;23;1421;-78
2023/08/11 01:02:43;;;;;;;6.70;2.70;;;;;;;;;;618364;23;1366;-77
2023/08/11 01:02:58;;;;;;;5.95;2.90;;;;;;;;;;618244;23;1493;-78
2023/08/11 01:03:14;;;;;;;7.70;2.80;;;;;;;;;;615587;23;1345;-77
2023/08/11 01:03:30;;;;;;;7.30;2.90;;;;;;;;;;615121;23;1324;-78
2023/08/11 01:03:47;;;;;;;6.15;2.92;;;;;;;;;;615815;23;1448;-77
2023/08/11 01:04:04;;;;;;;5.70;2.70;;;;;;;;;;618342;23;1322;-78
2023/08/11 01:04:21;;;;;;;6.68;2.80;;;;;;;;;;615621;23;1406;-78
2023/08/11 01:04:37;;;;;;;5.78;2.67;;;;;;;;;;615643;23;1399;-78
2023/08/11 01:04:52;;;;;;;4.25;2.60;;;;;;;;;;619009;23;1336;-78
2023/08/11 01:05:17;;;;;;;5.82;2.80;;;;;;;;;;618416;23;1183;-77
2023/08/11 01:05:35;;;;;;;5.63;2.70;;;;;;;;;;612349;23;1257;-77
2023/08/11 01:06:18;;;;;;;4.05;2.70;;;;;;;;;;615542;23;1360;-78
2023/08/11 01:06:47;;;;;;;6.05;2.80;;;;;;;;;;617102;23;1476;-77
2023/08/11 01:07:18;;;;;;;4.13;2.70;;;;;;;;;;619417;23;1351;-78
2023/08/11 01:07:43;;;;;;;5.00;2.80;;;;;;;;;;618787;23;1398;-77
2023/08/11 01:08:43;;;;;;;5.43;2.90;;;;;;;;;;618992;23;1435;-77
2023/08/11 01:09:13;;;;;;;4.40;2.70;;;;;;;;;;619620;23;1437;-78
2023/08/11 01:09:58;;;;;;;4.68;2.70;;;;;;;;;;623487;23;883;-78
2023/08/11 01:10:28;;;;;;;6.15;2.80;;;;;;;;;;620941;23;1119;-77
2023/08/11 01:11:00;;;;;;;5.25;2.95;;;;;;;;;;618627;23;1245;-78
2023/08/11 01:11:45;;;;;;;8.15;3.00;;;;;;;;;;618713;23;1273;-78
2023/08/11 01:12:16;;;;;;;6.57;2.90;;;;;;;;;;617981;23;1408;-78
2023/08/11 01:13:11;;;;;;;3.85;2.60;;;;;;;;;;619046;23;1426;-78
2023/08/11 01:13:29;;;;;;;5.25;2.92;;;;;;;;;;621026;23;1407;-78
2023/08/11 01:13:52;;;;;;;4.72;2.78;;;;;;;;;;618865;23;1420;-78
2023/08/11 01:14:24;;;;;;;4.72;2.90;;;;;;;;;;615401;23;1293;-78
2023/08/11 01:14:53;;;;;;;4.80;2.60;;;;;;;;;;618891;23;824;-78
2023/08/11 01:15:19;;;;;;;5.15;2.45;;;;;;;;;;615564;23;1301;-78
2023/08/11 01:15:41;;;;;;;4.72;2.42;;;;;;;;;;618659;23;1268;-78
2023/08/11 01:15:58;;;;;;;3.90;2.67;;;;;;;;;;621767;23;1292;-78
2023/08/11 01:16:54;;;;;;;5.40;2.80;;;;;;;;;;621115;23;1483;-78
2023/08/11 01:17:13;;;;;;;6.60;2.90;;;;;;;;;;620826;23;1959;-78
2023/08/11 01:17:30;;;;;;;4.60;2.60;;;;;;;;;;620844;23;1284;-79
2023/08/11 01:17:48;;;;;;;4.50;2.60;;;;;;;;;;621601;23;1254;-79
2023/08/11 01:18:06;;;;;;;4.17;2.63;;;;;;;;;;621770;23;1304;-78
2023/08/11 01:18:22;;;;;;;5.13;2.70;;;;;;;;;;620848;23;1416;-78
2023/08/11 01:18:38;;;;;;;4.60;2.70;;;;;;;;;;618254;23;1426;-78
2023/08/11 01:18:54;;;;;;;4.32;2.60;;;;;;;;;;618058;23;1232;-79
2023/08/11 01:19:18;;;;;;;6.17;2.70;;;;;;;;;;619008;23;1296;-78
2023/08/11 01:19:35;;;;;;;5.88;2.65;;;;;;;;;;613500;23;1131;-79
2023/08/11 01:19:51;;;;;;;5.65;2.70;;;;;;;;;;613088;23;1391;-79
2023/08/11 01:20:11;;;;;;;6.15;2.78;;;;;;;;;;619477;23;1229;-78
2023/08/11 01:20:27;;;;;;;6.10;2.90;;;;;;;;;;618695;23;1308;-78
2023/08/11 01:20:44;;;;;;;6.55;2.75;;;;;;;;;;615065;23;1403;-78
2023/08/11 01:21:05;;;;;;;5.15;2.53;;;;;;;;;;615850;23;1366;-78
2023/08/11 01:21:24;;;;;;;4.15;2.60;;;;;;;;;;617876;23;1303;-78
2023/08/11 01:21:40;;;;;;;3.58;2.40;;;;;;;;;;618102;23;1412;-78
2023/08/11 01:21:59;;;;;;;4.97;2.40;;;;;;;;;;618746;23;1304;-78
2023/08/11 01:22:18;;;;;;;6.53;2.63;;;;;;;;;;622114;23;1459;-78
2023/08/11 01:22:36;;;;;;;5.72;2.72;;;;;;;;;;622046;23;1412;-78
2023/08/11 01:22:54;;;;;;;6.07;2.60;;;;;;;;;;619098;23;1414;-78
2023/08/11 01:23:19;;;;;;;5.32;2.60;;;;;;;;;;615369;23;1392;-78
2023/08/11 01:23:35;;;;;;;4.68;2.50;;;;;;;;;;618664;23;1257;-78
2023/08/11 01:23:51;;;;;;;4.60;2.50;;;;;;;;;;615606;23;1367;-78
2023/08/11 01:24:07;;;;;;;6.32;2.70;;;;;;;;;;609256;23;1382;-77
2023/08/11 01:24:23;;;;;;;7.50;2.92;;;;;;;;;;616136;23;1288;-80
2023/08/11 01:24:41;;;;;;;5.65;2.90;;;;;;;;;;619714;23;1351;-78
2023/08/11 01:25:00;;;;;;;5.15;2.75;;;;;;;;;;619340;23;1379;-78
2023/08/11 01:25:16;;;;;;;4.88;2.70;;;;;;;;;;616160;23;1460;-79
2023/08/11 01:25:33;;;;;;;5.55;2.80;;;;;;;;;;616137;23;1551;-78
2023/08/11 01:25:49;;;;;;;8.13;2.80;;;;;;;;;;616641;23;1432;-78
2023/08/11 01:26:05;;;;;;;6.00;2.58;;;;;;;;;;612968;23;1426;-76
2023/08/11 01:26:21;;;;;;;4.88;2.67;;;;;;;;;;612593;23;853;-78
2023/08/11 01:26:36;;;;;;;4.50;2.85;;;;;;;;;;615435;23;1373;-78
2023/08/11 01:26:53;;;;;;;5.13;2.70;;;;;;;;;;621028;23;1360;-78
2023/08/11 01:27:08;;;;;;;5.43;2.60;;;;;;;;;;618342;23;1317;-77
2023/08/11 01:27:24;;;;;;;5.67;2.60;;;;;;;;;;618924;23;1177;-78
2023/08/11 01:27:52;;;;;;;5.57;2.70;;;;;;;;;;618752;23;1307;-77
2023/08/11 01:28:08;;;;;;;6.25;2.70;;;;;;;;;;619007;23;1364;-77
2023/08/11 01:28:24;;;;;;;5.13;2.70;;;;;;;;;;616263;23;1435;-78
2023/08/11 01:28:41;;;;;;;5.70;3.00;;;;;;;;;;612547;23;1405;-78
2023/08/11 01:28:56;;;;;;;6.95;3.08;;;;;;;;;;618288;23;1280;-78
2023/08/11 01:29:12;;;;;;;5.80;2.75;;;;;;;;;;618770;23;1257;-78
2023/08/11 01:29:28;;;;;;;5.30;2.72;;;;;;;;;;618709;23;1505;-77
2023/08/11 01:29:44;;;;;;;7.00;2.97;;;;;;;;;;616408;23;1223;-78
2023/08/11 01:29:59;;;;;;;6.72;3.05;;;;;;;;;;619600;23;1429;-78
2023/08/11 01:30:15;;;;;;;5.47;2.97;;;;;;;;;;619081;23;1256;-78
2023/08/11 01:30:35;;;;;;;4.72;2.88;;;;;;;;;;618166;23;823;-78
2023/08/11 01:30:50;;;;;;;4.32;2.60;;;;;;;;;;616135;23;1454;-78
2023/08/11 01:31:08;;;;;;;4.60;2.50;;;;;;;;;;612831;23;1429;-78
2023/08/11 01:31:24;;;;;;;4.88;2.70;;;;;;;;;;615250;23;1372;-77
2023/08/11 01:31:39;;;;;;;4.93;2.83;;;;;;;;;;615276;23;1245;-78
2023/08/11 01:31:55;;;;;;;4.47;2.70;;;;;;;;;;618545;23;1360;-78
2023/08/11 01:32:12;;;;;;;5.38;2.72;;;;;;;;;;619112;23;1304;-78
2023/08/11 01:32:28;;;;;;;6.25;2.72;;;;;;;;;;619718;23;1392;-78
2023/08/11 01:32:44;;;;;;;4.97;2.58;;;;;;;;;;619842;23;990;-78
2023/08/11 01:33:01;;;;;;;4.85;2.60;;;;;;;;;;622491;23;1024;-77
2023/08/11 01:33:19;;;;;;;5.28;2.70;;;;;;;;;;619118;23;1071;-78
2023/08/11 01:33:35;;;;;;;6.40;2.90;;;;;;;;;;615740;23;1463;-78
2023/08/11 01:33:50;;;;;;;6.35;2.83;;;;;;;;;;616665;23;1304;-78
2023/08/11 01:34:06;;;;;;;6.97;2.80;;;;;;;;;;613170;23;1189;-78
2023/08/11 01:34:22;;;;;;;6.85;2.70;;;;;;;;;;615769;23;1280;-77
2023/08/11 01:34:38;;;;;;;4.95;2.50;;;;;;;;;;612736;23;1241;-78
2023/08/11 01:34:54;;;;;;;5.07;2.65;;;;;;;;;;616864;23;1288;-78
2023/08/11 01:35:09;;;;;;;6.38;2.72;;;;;;;;;;615499;23;848;-77
2023/08/11 01:35:25;;;;;;;5.73;2.70;;;;;;;;;;613969;23;1318;-78
2023/08/11 01:35:40;;;;;;;7.60;2.70;;;;;;;;;;613954;23;1212;-77
2023/08/11 01:35:56;;;;;;;8.37;2.60;;;;;;;;;;616921;23;1154;-77
2023/08/11 01:36:11;;;;;;;5.78;2.65;;;;;;;;;;617032;23;1379;-76
2023/08/11 01:36:26;;;;;;;4.90;2.70;;;;;;;;;;616221;23;1166;-78
2023/08/11 01:36:42;;;;;;;5.13;2.60;;;;;;;;;;617479;23;805;-77
2023/08/11 01:37:01;;;;;;;5.47;2.50;;;;;;;;;;614376;23;1260;-77
2023/08/11 01:37:17;;;;;;;5.05;2.60;;;;;;;;;;614334;23;1906;-78
2023/08/11 01:37:33;;;;;;;5.10;2.60;;;;;;;;;;610988;23;1225;-78
2023/08/11 01:37:48;;;;;;;4.72;2.60;;;;;;;;;;614287;23;1118;-78
2023/08/11 01:38:04;;;;;;;5.70;2.60;;;;;;;;;;617016;23;1321;-77
2023/08/11 01:38:19;;;;;;;8.98;2.80;;;;;;;;;;617491;23;808;-77
2023/08/11 01:38:55;;;;;;;7.60;2.73;;;;;;;;;;617229;23;1181;-77
2023/08/11 01:39:11;;;;;;;5.60;2.72;;;;;;;;;;615571;23;1519;-78
2023/08/11 01:39:30;;;;;;;5.63;2.70;;;;;;;;;;614129;23;1342;-78
2023/08/11 01:39:46;;;;;;;7.95;2.80;;;;;;;;;;612858;23;1269;-77
2023/08/11 01:40:04;;;;;;;7.05;2.78;;;;;;;;;;611409;23;1206;-77
2023/08/11 01:40:21;;;;;;;5.10;2.78;;;;;;;;;;611010;23;1419;-77
2023/08/11 01:40:37;;;;;;;6.00;2.63;;;;;;;;;;614463;23;845;-78
2023/08/11 01:40:52;;;;;;;7.20;2.65;;;;;;;;;;611524;23;1451;-77
2023/08/11 01:41:08;;;;;;;7.27;2.80;;;;;;;;;;611423;23;1234;-77
2023/08/11 01:41:23;;;;;;;6.05;2.90;;;;;;;;;;610950;23;1219;-78
2023/08/11 01:41:39;;;;;;;5.47;2.77;;;;;;;;;;611841;23;1207;-77
2023/08/11 01:41:55;;;;;;;5.07;2.67;;;;;;;;;;611535;23;1376;-77
2023/08/11 01:42:11;;;;;;;4.65;2.70;;;;;;;;;;613340;23;848;-77
2023/08/11 01:42:27;;;;;;;5.47;2.88;;;;;;;;;;611202;23;1332;-77
2023/08/11 01:42:47;;;;;;;4.80;2.80;;;;;;;;;;611328;23;1291;-77
2023/08/11 01:43:05;;;;;;;5.82;2.60;;;;;;;;;;608605;24;1160;-76
2023/08/11 01:43:22;;;;;;;5.68;2.75;;;;;;;;;;611764;23;1269;-76
2023/08/11 01:43:39;;;;;;;4.72;2.75;;;;;;;;;;611825;23;1244;-77
2023/08/11 01:43:54;;;;;;;5.22;2.80;;;;;;;;;;611664;23;1399;-77
2023/08/11 01:44:13;;;;;;;4.97;2.70;;;;;;;;;;611144;23;1332;-77
2023/08/11 01:44:29;;;;;;;4.80;2.67;;;;;;;;;;608953;23;1300;-76
2023/08/11 01:44:48;;;;;;;3.70;2.53;;;;;;;;;;608523;23;1340;-77
2023/08/11 01:45:04;;;;;;;4.35;2.65;;;;;;;;;;609049;24;1250;-77
2023/08/11 01:45:20;;;;;;;4.40;2.70;;;;;;;;;;612032;23;1298;-76
2023/08/11 01:45:37;;;;;;;4.80;2.80;;;;;;;;;;611064;23;1254;-76
2023/08/11 01:45:53;;;;;;;4.72;2.75;;;;;;;;;;614532;23;1384;-77
2023/08/11 01:46:10;;;;;;;5.75;2.80;;;;;;;;;;614296;23;1184;-77
2023/08/11 01:46:28;;;;;;;6.18;2.75;;;;;;;;;;618128;23;1174;-76
2023/08/11 01:46:45;;;;;;;5.10;2.60;;;;;;;;;;617349;23;1352;-77
2023/08/11 01:47:02;;;;;;;4.07;2.70;;;;;;;;;;617177;23;1334;-77
2023/08/11 01:47:19;;;;;;;4.97;2.83;;;;;;;;;;614548;23;1419;-77
2023/08/11 01:47:39;;;;;;;4.50;2.80;;;;;;;;;;614746;23;1249;-77
2023/08/11 01:47:56;;;;;;;3.80;2.70;;;;;;;;;;612600;23;1367;-77
2023/08/11 01:48:31;;;;;;;4.20;2.55;;;;;;;;;;611714;23;1281;-77
2023/08/11 01:48:47;;;;;;;5.75;2.92;;;;;;;;;;617256;23;1360;-77
2023/08/11 01:49:03;;;;;;;5.25;2.88;;;;;;;;;;618100;23;1253;-78
2023/08/11 01:49:19;;;;;;;4.25;2.70;;;;;;;;;;615174;23;1300;-78